createdAt,value
2023-03-28T00:02:15.745Z,82.83
2023-03-28T00:06:01.598Z,83.28
2023-03-28T00:09:44.670Z,83.35
2023-03-28T00:13:29.825Z,83.17
2023-03-28T00:17:12.619Z,83.81
2023-03-28T00:20:55.451Z,83.17
2023-03-28T00:24:38.958Z,83.90
2023-03-28T00:28:21.689Z,82.87
2023-03-28T00:32:06.358Z,82.53
2023-03-28T00:35:49.175Z,82.30
2023-03-28T00:39:31.910Z,81.07
2023-03-28T00:43:15.161Z,81.29
2023-03-28T00:46:57.961Z,80.69
2023-03-28T00:50:46.946Z,81.03
2023-03-28T00:54:33.146Z,81.53
2023-03-28T00:58:18.820Z,81.18
2023-03-28T01:02:01.831Z,81.17
2023-03-28T01:05:47.885Z,81.01
2023-03-28T01:09:30.931Z,80.80
2023-03-28T01:13:15.379Z,81.43
2023-03-28T01:16:58.114Z,81.47
2023-03-28T01:20:58.413Z,81.36
2023-03-28T01:25:20.884Z,80.86
2023-03-28T01:29:40.922Z,81.02
2023-03-28T01:33:48.031Z,81.04
2023-03-28T01:37:38.041Z,81.23
2023-03-28T01:41:24.883Z,81.56
2023-03-28T01:45:11.603Z,82.15
2023-03-28T01:48:58.986Z,81.41
2023-03-28T01:52:48.925Z,81.80
2023-03-28T01:56:37.837Z,81.83
2023-03-28T02:00:23.518Z,82.31
2023-03-28T02:04:20.478Z,80.95
2023-03-28T02:08:08.346Z,82.10
2023-03-28T02:11:54.238Z,81.86
2023-03-28T02:15:40.096Z,82.12
2023-03-28T02:19:25.039Z,83.50
2023-03-28T02:23:11.090Z,83.98
2023-03-28T02:26:56.285Z,83.57
2023-03-28T02:30:40.113Z,82.67
2023-03-28T02:34:22.826Z,82.85
2023-03-28T02:38:12.910Z,82.92
2023-03-28T02:42:15.882Z,82.66
2023-03-28T02:46:13.711Z,82.91
2023-03-28T02:50:03.363Z,84.63
2023-03-28T02:54:01.713Z,84.24
2023-03-28T02:57:47.145Z,83.17
2023-03-28T03:01:30.075Z,83.02
2023-03-28T03:05:13.881Z,83.55
2023-03-28T03:08:57.978Z,83.22
2023-03-28T03:12:41.541Z,82.91
2023-03-28T03:16:24.685Z,83.18
2023-03-28T03:20:08.716Z,82.37
2023-03-28T03:23:51.414Z,83.02
2023-03-28T03:27:36.776Z,82.82
2023-03-28T03:31:19.753Z,82.91
2023-03-28T03:35:02.575Z,83.35
2023-03-28T03:38:45.350Z,83.54
2023-03-28T03:42:28.066Z,83.72
2023-03-28T03:46:12.248Z,84.16
2023-03-28T03:49:55.212Z,84.08
2023-03-28T03:53:39.682Z,83.34
2023-03-28T03:57:22.552Z,83.87
2023-03-28T04:01:05.622Z,84.11
2023-03-28T04:04:49.693Z,84.54
2023-03-28T04:08:32.377Z,83.62
2023-03-28T04:12:15.019Z,84.13
2023-03-28T04:15:57.927Z,84.23
2023-03-28T04:19:41.502Z,84.43
2023-03-28T04:23:26.524Z,84.74
2023-03-28T04:27:09.785Z,85.24
2023-03-28T04:30:54.479Z,84.57
2023-03-28T04:34:39.091Z,84.51
2023-03-28T04:38:23.683Z,84.14
2023-03-28T04:42:08.656Z,83.89
2023-03-28T04:45:51.359Z,84.71
2023-03-28T04:49:34.057Z,83.20
2023-03-28T04:53:17.395Z,82.77
2023-03-28T04:57:00.154Z,83.42
2023-03-28T05:00:44.376Z,82.87
2023-03-28T05:04:27.926Z,83.17
2023-03-28T05:08:11.154Z,82.93
2023-03-28T05:11:53.828Z,83.10
2023-03-28T05:15:36.519Z,83.78
2023-03-28T05:19:20.884Z,82.89
2023-03-28T05:23:06.493Z,82.99
2023-03-28T05:26:49.168Z,82.87
2023-03-28T05:30:32.045Z,82.75
2023-03-28T05:34:14.654Z,83.38
2023-03-28T05:37:58.722Z,83.34
2023-03-28T05:41:41.387Z,82.69
2023-03-28T05:45:24.022Z,82.56
2023-03-28T05:49:06.642Z,82.42
2023-03-28T05:52:49.364Z,82.06
2023-03-28T05:56:35.695Z,81.54
2023-03-28T06:00:19.777Z,81.81
2023-03-28T06:04:02.474Z,81.66
2023-03-28T06:07:45.194Z,80.75
2023-03-28T06:11:28.266Z,80.55
2023-03-28T06:15:13.076Z,80.34
2023-03-28T06:19:03.995Z,80.79
2023-03-28T06:22:53.454Z,80.19
2023-03-28T06:26:36.117Z,79.27
2023-03-28T06:30:20.297Z,80.33
2023-03-28T06:34:02.996Z,79.24
2023-03-28T06:37:45.640Z,78.51
2023-03-28T06:41:28.323Z,77.54
2023-03-28T06:45:11.847Z,77.56
2023-03-28T06:48:55.978Z,75.40
2023-03-28T06:52:38.713Z,74.40
2023-03-28T06:56:21.391Z,74.59
2023-03-28T07:00:04.677Z,75.31
2023-03-28T07:03:48.751Z,74.84
2023-03-28T07:07:34.736Z,72.82
2023-03-28T07:11:17.369Z,73.71
2023-03-28T07:15:00.033Z,73.57
2023-03-28T07:18:42.700Z,73.03
2023-03-28T07:22:25.400Z,72.66
2023-03-28T07:26:10.961Z,73.05
2023-03-28T07:29:53.650Z,72.40
2023-03-28T07:33:38.259Z,72.35
2023-03-28T07:37:21.161Z,71.33
2023-03-28T07:41:04.459Z,70.80
2023-03-28T07:44:48.449Z,70.19
2023-03-28T07:48:31.703Z,69.21
2023-03-28T07:52:14.866Z,69.34
2023-03-28T07:55:57.505Z,67.21
2023-03-28T07:59:40.179Z,66.68
2023-03-28T08:03:24.511Z,65.91
2023-03-28T08:07:07.808Z,64.75
2023-03-28T08:10:51.418Z,65.71
2023-03-28T08:14:34.326Z,64.42
2023-03-28T08:18:20.887Z,62.79
2023-03-28T08:22:05.608Z,63.54
2023-03-28T08:25:48.278Z,63.90
2023-03-28T08:29:31.090Z,63.52
2023-03-28T08:33:13.895Z,63.24
2023-03-28T08:36:57.683Z,62.82
2023-03-28T08:40:48.417Z,61.64
2023-03-28T08:44:58.379Z,61.90
2023-03-28T08:48:43.139Z,61.51
2023-03-28T08:52:25.895Z,59.52
2023-03-28T08:56:10.922Z,59.09
2023-03-28T08:59:55.582Z,58.33
2023-03-28T09:03:38.320Z,59.09
2023-03-28T09:07:30.561Z,59.33
2023-03-28T09:11:23.070Z,59.76
2023-03-28T09:15:34.165Z,55.69
2023-03-28T09:19:36.939Z,53.92
2023-03-28T09:24:01.648Z,55.24
2023-03-28T09:27:50.527Z,52.49
2023-03-28T09:31:34.645Z,53.72
2023-03-28T09:35:19.356Z,54.54
2023-03-28T09:39:03.185Z,53.38
2023-03-28T09:42:53.202Z,49.16
2023-03-28T09:46:41.024Z,45.84
2023-03-28T09:50:23.704Z,48.57
2023-03-28T09:54:08.044Z,51.01
2023-03-28T09:58:05.771Z,51.50
2023-03-28T10:01:51.573Z,52.84
2023-03-28T10:05:38.021Z,52.79
2023-03-28T10:09:22.975Z,49.95
2023-03-28T10:13:07.012Z,48.82
2023-03-28T10:16:52.580Z,51.04
2023-03-28T10:20:37.815Z,52.32
2023-03-28T10:24:22.670Z,51.12
2023-03-28T10:28:09.034Z,50.49
2023-03-28T10:31:51.881Z,51.06
2023-03-28T10:35:35.086Z,51.12
2023-03-28T10:39:22.906Z,49.84
2023-03-28T10:43:13.180Z,49.32
2023-03-28T10:46:56.744Z,49.74
2023-03-28T10:50:43.587Z,48.91
2023-03-28T10:54:42.800Z,49.10
2023-03-28T10:58:33.003Z,47.64
2023-03-28T11:02:31.230Z,47.00
2023-03-28T11:06:18.330Z,46.78
2023-03-28T11:10:08.499Z,47.02
2023-03-28T11:13:56.805Z,47.11
2023-03-28T11:17:49.178Z,47.89
2023-03-28T11:21:37.857Z,48.49
2023-03-28T11:25:22.426Z,46.92
2023-03-28T11:29:18.395Z,45.78
2023-03-28T11:33:05.055Z,45.46
2023-03-28T11:36:51.360Z,46.75
2023-03-28T11:40:37.550Z,47.52
2023-03-28T11:44:26.472Z,47.27
2023-03-28T11:48:11.986Z,48.75
2023-03-28T11:51:59.538Z,47.38
2023-03-28T11:55:47.728Z,45.95
2023-03-28T11:59:38.573Z,46.54
2023-03-28T12:03:24.970Z,46.16
2023-03-28T12:07:12.317Z,47.21
2023-03-28T12:10:58.801Z,47.84
2023-03-28T12:14:50.944Z,46.36
2023-03-28T12:18:36.089Z,45.61
2023-03-28T12:22:22.618Z,45.18
2023-03-28T12:26:18.125Z,45.01
2023-03-28T12:30:06.762Z,43.75
2023-03-28T12:33:55.928Z,42.36
2023-03-28T12:37:43.323Z,42.49
2023-03-28T12:41:28.855Z,41.55
2023-03-28T12:45:17.070Z,41.04
2023-03-28T12:49:02.103Z,41.32
2023-03-28T12:52:46.675Z,40.85
2023-03-28T12:56:29.527Z,42.65
2023-03-28T13:00:23.682Z,41.42
2023-03-28T13:04:15.430Z,39.79
2023-03-28T13:08:01.617Z,40.32
2023-03-28T13:11:52.679Z,39.23
2023-03-28T13:15:51.107Z,40.12
2023-03-28T13:19:39.327Z,40.19
2023-03-28T13:23:29.712Z,39.94
2023-03-28T13:27:13.754Z,39.57
2023-03-28T13:31:21.071Z,37.66
2023-03-28T13:35:05.566Z,38.67
2023-03-28T13:38:50.729Z,37.71
2023-03-28T13:42:34.729Z,38.50
2023-03-28T13:46:20.626Z,37.95
2023-03-28T13:50:06.772Z,37.14
2023-03-28T13:53:49.632Z,37.71
2023-03-28T13:57:32.284Z,36.74
2023-03-28T14:01:17.328Z,36.36
2023-03-28T14:05:14.153Z,37.05
2023-03-28T14:09:00.385Z,36.20
2023-03-28T14:12:44.618Z,36.56
2023-03-28T14:16:27.226Z,35.98
2023-03-28T14:20:17.435Z,34.71
2023-03-28T14:24:01.411Z,34.49
2023-03-28T14:27:45.742Z,35.02
2023-03-28T14:31:33.112Z,34.67
2023-03-28T14:35:21.044Z,35.22
2023-03-28T14:39:13.360Z,34.76
2023-03-28T14:43:01.764Z,36.23
2023-03-28T14:46:44.480Z,35.55
2023-03-28T14:50:32.036Z,35.16
2023-03-28T14:54:16.802Z,36.19
2023-03-28T14:58:00.478Z,37.37
2023-03-28T15:01:44.547Z,37.84
2023-03-28T15:05:29.554Z,37.32
2023-03-28T15:09:27.558Z,37.50
2023-03-28T15:13:14.091Z,54.38
2023-03-28T15:16:57.097Z,36.18
2023-03-28T15:20:45.979Z,38.36
2023-03-28T15:24:29.698Z,38.43
2023-03-28T15:28:16.258Z,37.80
2023-03-28T15:32:03.489Z,38.46
2023-03-28T15:35:47.720Z,38.34
2023-03-28T15:39:31.924Z,38.56
2023-03-28T15:43:37.619Z,38.48
2023-03-28T15:47:22.580Z,38.21
2023-03-28T15:51:07.950Z,38.76
2023-03-28T15:54:53.395Z,38.48
2023-03-28T15:58:42.377Z,38.70
2023-03-28T16:02:33.620Z,38.00
2023-03-28T16:06:30.624Z,37.43
2023-03-28T16:10:16.995Z,37.30
2023-03-28T16:14:02.121Z,36.95
2023-03-28T16:17:45.233Z,37.49
2023-03-28T16:21:29.440Z,36.64
2023-03-28T16:25:12.424Z,35.77
2023-03-28T16:28:55.029Z,36.53
2023-03-28T16:32:37.718Z,36.01
2023-03-28T16:36:20.407Z,35.89
2023-03-28T16:40:04.948Z,35.98
2023-03-28T16:43:47.946Z,35.91
2023-03-28T16:47:30.894Z,36.61
2023-03-28T16:51:13.590Z,36.41
2023-03-28T16:54:56.268Z,38.03
2023-03-28T16:58:40.578Z,37.49
2023-03-28T17:02:23.268Z,37.29
2023-03-28T17:06:08.316Z,37.97
2023-03-28T17:09:51.022Z,37.99
2023-03-28T17:13:34.169Z,39.38
2023-03-28T17:17:19.218Z,39.34
2023-03-28T17:21:03.509Z,39.03
2023-03-28T17:24:46.871Z,39.77
2023-03-28T17:28:30.440Z,40.44
2023-03-28T17:32:13.401Z,39.79
2023-03-28T17:35:57.501Z,40.12
2023-03-28T17:39:40.880Z,40.38
2023-03-28T17:43:23.521Z,40.88
2023-03-28T17:47:06.317Z,41.12
2023-03-28T17:50:52.867Z,41.31
2023-03-28T17:54:36.922Z,41.74
2023-03-28T17:58:19.720Z,42.32
2023-03-28T18:02:02.973Z,42.81
2023-03-28T18:05:48.965Z,43.26
2023-03-28T18:09:31.744Z,43.77
2023-03-28T18:13:16.126Z,43.35
2023-03-28T18:16:58.728Z,44.44
2023-03-28T18:20:43.226Z,44.14
2023-03-28T18:24:26.657Z,45.00
2023-03-28T18:28:09.437Z,44.22
2023-03-28T18:31:53.470Z,44.77
2023-03-28T18:35:36.202Z,45.03
2023-03-28T18:39:18.937Z,44.67
2023-03-28T18:43:02.011Z,44.44
2023-03-28T18:46:44.711Z,44.32
2023-03-28T18:50:29.660Z,44.86
2023-03-28T18:54:12.313Z,45.26
2023-03-28T18:57:55.341Z,45.78
2023-03-28T19:01:41.163Z,47.17
2023-03-28T19:05:25.336Z,48.06
2023-03-28T19:09:09.374Z,48.43
2023-03-28T19:12:53.757Z,47.88
2023-03-28T19:16:37.150Z,47.66
2023-03-28T19:20:20.031Z,46.82
2023-03-28T19:24:02.645Z,47.33
2023-03-28T19:27:49.523Z,48.04
2023-03-28T19:31:32.421Z,48.42
2023-03-28T19:35:15.082Z,49.33
2023-03-28T19:38:57.710Z,49.11
2023-03-28T19:42:40.423Z,50.83
2023-03-28T19:46:34.746Z,50.68
2023-03-28T19:50:19.996Z,51.95
2023-03-28T19:54:02.682Z,50.91
2023-03-28T19:57:45.536Z,50.86
2023-03-28T20:01:29.580Z,50.85
2023-03-28T20:05:12.248Z,51.27
2023-03-28T20:08:55.006Z,51.85
2023-03-28T20:12:39.851Z,51.95
2023-03-28T20:16:22.674Z,52.37
2023-03-28T20:20:10.140Z,52.73
2023-03-28T20:23:53.938Z,53.15
2023-03-28T20:27:37.697Z,53.57
2023-03-28T20:31:20.501Z,53.71
2023-03-28T20:35:03.233Z,54.35
2023-03-28T20:38:47.547Z,54.30
2023-03-28T20:42:31.225Z,54.17
2023-03-28T20:46:14.486Z,54.75
2023-03-28T20:49:59.175Z,55.54
2023-03-28T20:53:45.493Z,55.21
2023-03-28T20:57:30.344Z,54.87
2023-03-28T21:01:14.142Z,54.83
2023-03-28T21:04:56.800Z,54.84
2023-03-28T21:08:39.503Z,56.22
2023-03-28T21:12:22.208Z,51.32
2023-03-28T21:16:07.287Z,52.32
2023-03-28T21:19:49.987Z,53.74
2023-03-28T21:23:32.928Z,54.28
2023-03-28T21:27:15.732Z,55.07
2023-03-28T21:30:59.603Z,54.78
2023-03-28T21:34:44.720Z,54.81
2023-03-28T21:38:27.593Z,55.15
2023-03-28T21:42:10.274Z,54.48
2023-03-28T21:45:53.857Z,54.50
2023-03-28T21:49:37.562Z,54.58
2023-03-28T21:53:22.120Z,55.31
2023-03-28T21:57:04.856Z,55.51
2023-03-28T22:00:47.925Z,55.72
2023-03-28T22:04:30.756Z,56.02
2023-03-28T22:08:13.983Z,56.33
2023-03-28T22:11:58.096Z,56.57
2023-03-28T22:15:41.154Z,56.43
2023-03-28T22:19:25.077Z,56.50
2023-03-28T22:23:08.922Z,56.05
2023-03-28T22:26:51.699Z,55.92
2023-03-28T22:30:37.325Z,56.19
2023-03-28T22:34:21.010Z,56.58
2023-03-28T22:38:04.610Z,57.07
2023-03-28T22:41:47.322Z,57.14
2023-03-28T22:45:30.099Z,57.50
2023-03-28T22:49:21.893Z,57.70
2023-03-28T22:53:04.580Z,58.10
2023-03-28T22:56:47.453Z,58.46
2023-03-28T23:00:30.099Z,58.64
2023-03-28T23:04:14.144Z,58.67
2023-03-28T23:07:57.686Z,59.00
2023-03-28T23:11:41.008Z,59.25
2023-03-28T23:15:23.664Z,59.06
2023-03-28T23:19:07.274Z,59.43
2023-03-28T23:22:53.347Z,59.91
2023-03-28T23:26:35.983Z,59.86
2023-03-28T23:30:18.806Z,60.43
2023-03-28T23:34:01.642Z,61.00
2023-03-28T23:37:44.735Z,61.07
2023-03-28T23:41:28.729Z,60.94
2023-03-28T23:45:12.129Z,60.71
2023-03-28T23:48:54.749Z,60.79
2023-03-28T23:52:37.785Z,60.79
2023-03-28T23:56:20.480Z,60.88
